John Day, OR

4:55 AM PST on December 22, 2014 (GMT -0800)
Grant County Regional | Change Station
CLOSE
Current Station
Airport
Location: Grant County,
Elevation: 3698 ft
Nearby Weather Stations

Elev 3698 ft 44.40 °N, 118.96 °W | Updated 20 minutes ago

Overcast
Overcast
40 °F
Feels Like 36 °F
N
6
Wind Variable Wind from WSW

Today
High -- | Low -- °F
--% Chance of Precip.
Yesterday
High -- | Low -- °F
Precip. -- in
7:29 AM 4:19 PM
New Moon, 0% visible
Pressure 30.14 in
Visibility 10.0 miles
Clouds Mostly Cloudy 600 ft
Overcast 1200 ft
Windchill 36 °F
Dew Point 38 °F
Humidity 95%
Rainfall 0.02 in
Snow Depth Not available.
UV 0 out of 12
Pollen .60 out of 12
Air Quality Not available.
Flu Activity Not available.
METAR KGCD 221235Z AUTO 25005KT 10SM BKN006 OVC012 04/04 A3014 RMK AO2 T00430036

More Conditions Fewer Conditions

Pressure 30.14 in
Visibility 10.0 miles
Clouds Mostly Cloudy 600 ft
Overcast 1200 ft
Windchill 36 °F
Dew Point 38 °F
Humidity 95%
Rainfall 0.02 in
Snow Depth Not available.
UV 0 out of 12
Pollen .60 out of 12
Air Quality Not available.
Flu Activity Not available.
METAR KGCD 221235Z AUTO 25005KT 10SM BKN006 OVC012 04/04 A3014 RMK AO2 T00430036

More Conditions Fewer Conditions

10-Day Weather Forecast

Almanac

Astronomy

Dec. 22, 2014 Rise Set
Actual Time
Civil Twilight
Nautical Twilight
Astronomical Twilight
Moon
Length of Visible Light
Length of Day
Tomorrow will be .
, % of the Moon is Illuminated

Today's Extremes

State Highs State Lows

Community

WunderPhotos

Upload Photos

1,779,598 photos uploaded!

WunderBlogs® & News

Nearby

Air Quality

  Air Quality AQ Index Pollutant
Not available.

Snow Depth

Station Depth Elevation

Earthquake Activity

City Distance Mag. Time & Date
Minimum magnitude displayed is 2.5.

Coastal Water Temperatures

Place Temperature

Nearby Weather Stations